< < Back
Terminal Aerodrome Forecast


Current Version              Previous Versions:   1  2  3  4  5  6  7  8  9  

Terminal Aerodrome Forecast

051
FTAK31 PAJN 242300
TAFAHN
TAF
PAHN 242320Z 2500/2524 29010KT P6SM FEW100
     FM250300 30008KT P6SM OVC050
     FM250900 30008KT 4SM -SN OVC025
     FM251600 30010KT 5SM -SN OVC015
     FM252200 VRB06KT P6SM -SN SCT020 OVC040
      AMD LTD TO CLD VIS AND WIND=

Latest METAR

892
SAUS70 KWBC 250100
MTRAHN
METAR KAHN 250051Z 28013G21KT 10SM OVC019 11/08 A2976 RMK AO2 SLP078
T01060083


USA.gov is the U.S. government's official web portal to all federal, state and local government web resources and services.